CSF7 weather

Ottawa / Casselman (Shea Field)
Ottawa, Ontario, Canada

Public forecast

Using degrees Celsius for public forecast. Weather courtesy of forecast.io.

Closest aviation weather report (METAR) to Ottawa / Casselman (Shea Field)

Closest report is Ottawa Macdonald-Cartier International Airport, 21.1 nm (39.0 km) W. Retrieved 2020/05/30 09:00 UTC (24 minutes ago):

CYOW 300900Z 28012KT 15SM FEW011 BKN019 BKN040 12/10 A2984 RMK SF1SC6SC1 SC TR SLP105

Closest aviation forecast (TAF) to Ottawa / Casselman (Shea Field)

Closest forecast is Ottawa Macdonald-Cartier International Airport, 21.1 nm (39.0 km) W. Retrieved 2020/05/30 09:42 UTC (0 seconds ago):

TAF TAF CYOW 300838Z 3009/3106 31010G20KT P6SM FEW020 BKN040 TEMPO 3009/3011 4SM -SHRA BR BKN020 FM301100 29010KT P6SM OVC012 FM301500 27005KT P6SM SCT020 FM301700 20012KT P6SM BKN050 TEMPO 3017/3019 P6SM -SHRA FM301900 24012G22KT P6SM BKN030 TEMPO 3019/3023 VRB15G25KT 4SM SHRA BR BKN020 FM302300 32012KT P6SM BKN020 FM310200 33010KT P6SM SCT020 RMK NXT FCST BY 301200Z